Donnie Sonier — WDF9285 — position and weather

sailwx.info

Track history (hours):
 
Tides and Currents Weather Stations Pressure Air Temp Water Temp Dewpoint Dewpoint Depression Visibility Wind Speed Wind Dir Waves Ship Positions

Donnie Sonier

Owner: LeBeouf Bros. Towing, LLC, Houma, LA. More information available from US FCC via Universal Licensing System and Coast Guard Vessel Documentation Center.

Last reported at 2016-May-29 14:33 UTC. Time now 2016-May-30 16:24 UTC.
Position N 29°47' W 095°05'.

Length 22 m.

Type: Tug. MMSI: 367503580.

Date/timePositionNaut miles runAvg speedWind from/ knotsBaromVisibWave heightAir tempDewpointWater temp
2016-May-29 14:33N 29°47' W 095°05'0 0.0
2016-May-29 13:11N 29°47' W 095°05'0 0.0
2016-May-29 12:34N 29°47' W 095°05'0 0.0
2016-May-29 11:31N 29°47' W 095°05'0 0.0
2016-May-29 10:34N 29°47' W 095°05'0 0.0
2016-May-29 09:33N 29°47' W 095°05'0 0.0
2016-May-29 08:30N 29°47' W 095°05'0 0.0
2016-May-29 07:32N 29°47' W 095°05'0 0.0
2016-May-29 06:03N 29°47' W 095°05'0 0.0
2016-May-28 02:33N 29°47' W 095°05'3 0.1
2016-May-26 21:26N 29°44' W 095°03'1 0.4
2016-May-26 20:11N 29°44' W 095°03'0 0.0
2016-May-26 19:08N 29°44' W 095°03'1 0.4
2016-May-26 16:33N 29°45' W 095°04'1 0.1
2016-May-25 22:24N 29°44' W 095°03'3 0.1
2016-May-24 21:20N 29°45' W 095°06'0 0.0
2016-May-24 19:33N 29°45' W 095°06'  
2016-May-22 14:05N 29°45' W 095°04'2 3.0
2016-May-22 13:34N 29°44' W 095°03'0 0.0
2016-May-22 12:30N 29°44' W 095°03'0 0.0
2016-May-22 11:28N 29°44' W 095°03'0 0.0
2016-May-22 06:23N 29°44' W 095°03'0 0.0
2016-May-21 23:17N 29°44' W 095°03'0 0.0
2016-May-21 02:30N 29°44' W 095°03'0 0.0
2016-May-21 00:33N 29°44' W 095°03'0 0.0
2016-May-20 04:33N 29°44' W 095°03'2 1.5
2016-May-20 03:25N 29°43' W 095°01'4 4.4
2016-May-20 02:33N 29°40' W 094°59'6 6.4
2016-May-20 01:33N 29°34' W 094°55'  
Track history (hours):
 
Tides and Currents Weather Stations Pressure Air Temp Water Temp Dewpoint Dewpoint Depression Visibility Wind Speed Wind Dir Waves Ship Positions

Donnie Sonier

Owner: LeBeouf Bros. Towing, LLC, Houma, LA. More information available from US FCC via Universal Licensing System and Coast Guard Vessel Documentation Center.

Last reported at 2016-May-29 14:33 UTC. Time now 2016-May-30 16:24 UTC.
Position N 29°47' W 095°05'.

Length 22 m.

Type: Tug. MMSI: 367503580.

Date/timePositionNaut miles runAvg speedWind from/ knotsBaromVisibWave heightAir tempDewpointWater temp
2016-May-29 14:33N 29°47' W 095°05'0 0.0
2016-May-29 13:11N 29°47' W 095°05'0 0.0
2016-May-29 12:34N 29°47' W 095°05'0 0.0
2016-May-29 11:31N 29°47' W 095°05'0 0.0
2016-May-29 10:34N 29°47' W 095°05'0 0.0
2016-May-29 09:33N 29°47' W 095°05'0 0.0
2016-May-29 08:30N 29°47' W 095°05'0 0.0
2016-May-29 07:32N 29°47' W 095°05'0 0.0
2016-May-29 06:03N 29°47' W 095°05'0 0.0
2016-May-28 02:33N 29°47' W 095°05'3 0.1
2016-May-26 21:26N 29°44' W 095°03'1 0.4
2016-May-26 20:11N 29°44' W 095°03'0 0.0
2016-May-26 19:08N 29°44' W 095°03'1 0.4
2016-May-26 16:33N 29°45' W 095°04'1 0.1
2016-May-25 22:24N 29°44' W 095°03'3 0.1
2016-May-24 21:20N 29°45' W 095°06'0 0.0
2016-May-24 19:33N 29°45' W 095°06'  
2016-May-22 14:05N 29°45' W 095°04'2 3.0
2016-May-22 13:34N 29°44' W 095°03'0 0.0
2016-May-22 12:30N 29°44' W 095°03'0 0.0
2016-May-22 11:28N 29°44' W 095°03'0 0.0
2016-May-22 06:23N 29°44' W 095°03'0 0.0
2016-May-21 23:17N 29°44' W 095°03'0 0.0
2016-May-21 02:30N 29°44' W 095°03'0 0.0
2016-May-21 00:33N 29°44' W 095°03'0 0.0
2016-May-20 04:33N 29°44' W 095°03'2 1.5
2016-May-20 03:25N 29°43' W 095°01'4 4.4
2016-May-20 02:33N 29°40' W 094°59'6 6.4
2016-May-20 01:33N 29°34' W 094°55'  

Dump ship's entire track history